createdAt,value
2022-12-04T00:01:26.593Z,85.25
2022-12-04T00:03:55.441Z,85.34
2022-12-04T00:06:24.766Z,85.42
2022-12-04T00:08:53.294Z,85.97
2022-12-04T00:11:23.921Z,85.74
2022-12-04T00:13:52.086Z,85.22
2022-12-04T00:16:22.614Z,85.17
2022-12-04T00:18:52.420Z,85.21
2022-12-04T00:21:21.988Z,85.47
2022-12-04T00:23:50.504Z,85.85
2022-12-04T00:26:20.195Z,85.97
2022-12-04T00:28:49.277Z,85.76
2022-12-04T00:31:19.539Z,85.35
2022-12-04T00:33:48.039Z,86.28
2022-12-04T00:36:19.928Z,85.85
2022-12-04T00:38:48.725Z,85.48
2022-12-04T00:41:18.611Z,85.36
2022-12-04T00:43:46.872Z,85.33
2022-12-04T00:46:15.561Z,85.08
2022-12-04T00:48:43.657Z,85.46
2022-12-04T00:51:13.483Z,85.63
2022-12-04T00:53:43.077Z,85.05
2022-12-04T00:56:14.207Z,84.80
2022-12-04T00:58:42.833Z,84.59
2022-12-04T01:01:12.958Z,84.99
2022-12-04T01:03:41.360Z,85.62
2022-12-04T01:06:18.271Z,85.01
2022-12-04T01:08:48.188Z,84.90
2022-12-04T01:11:16.488Z,84.89
2022-12-04T01:13:44.637Z,84.70
2022-12-04T01:16:17.744Z,84.51
2022-12-04T01:18:45.757Z,85.19
2022-12-04T01:21:13.878Z,85.35
2022-12-04T01:23:41.820Z,85.11
2022-12-04T01:26:11.411Z,85.35
2022-12-04T01:28:39.591Z,86.07
2022-12-04T01:31:09.536Z,86.10
2022-12-04T01:33:38.707Z,86.53
2022-12-04T01:36:09.012Z,87.29
2022-12-04T01:38:37.784Z,86.87
2022-12-04T01:41:06.717Z,86.35
2022-12-04T01:43:37.955Z,87.64
2022-12-04T01:46:07.020Z,87.36
2022-12-04T01:48:38.776Z,86.79
2022-12-04T01:51:12.146Z,86.83
2022-12-04T01:53:45.471Z,86.20
2022-12-04T01:56:15.292Z,86.15
2022-12-04T01:58:49.944Z,86.39
2022-12-04T02:01:18.003Z,86.92
2022-12-04T02:03:46.108Z,86.31
2022-12-04T02:06:13.977Z,87.57
2022-12-04T02:08:42.208Z,86.75
2022-12-04T02:11:21.016Z,86.40
2022-12-04T02:14:01.682Z,86.16
2022-12-04T02:16:38.345Z,86.21
2022-12-04T02:19:25.508Z,85.58
2022-12-04T02:21:57.013Z,85.98
2022-12-04T02:24:49.982Z,85.52
2022-12-04T02:27:36.137Z,86.27
2022-12-04T02:30:07.858Z,85.74
2022-12-04T02:32:43.366Z,85.60
2022-12-04T02:35:16.967Z,85.29
2022-12-04T02:37:48.212Z,85.63
2022-12-04T02:40:25.343Z,86.49
2022-12-04T02:42:59.439Z,85.98
2022-12-04T02:45:34.098Z,85.45
2022-12-04T02:48:05.974Z,85.66
2022-12-04T02:50:38.496Z,85.40
2022-12-04T02:53:11.623Z,85.48
2022-12-04T02:55:44.200Z,87.45
2022-12-04T02:58:17.619Z,86.99
2022-12-04T03:00:49.852Z,86.90
2022-12-04T03:03:21.269Z,86.92
2022-12-04T03:05:56.519Z,87.42
2022-12-04T03:08:28.837Z,86.84
2022-12-04T03:11:00.725Z,86.47
2022-12-04T03:13:35.844Z,86.57
2022-12-04T03:16:11.311Z,86.67
2022-12-04T03:18:43.238Z,85.98
2022-12-04T03:21:15.535Z,86.59
2022-12-04T03:23:47.725Z,87.05
2022-12-04T03:26:25.239Z,86.86
2022-12-04T03:28:58.757Z,86.90
2022-12-04T03:31:37.013Z,86.29
2022-12-04T03:34:07.165Z,86.62
2022-12-04T03:36:38.752Z,86.29
2022-12-04T03:39:14.015Z,85.90
2022-12-04T03:41:58.953Z,85.70
2022-12-04T03:44:31.000Z,85.33
2022-12-04T03:47:05.853Z,85.40
2022-12-04T03:49:43.563Z,85.28
2022-12-04T03:52:16.190Z,85.46
2022-12-04T03:54:48.474Z,84.87
2022-12-04T03:57:22.404Z,84.79
2022-12-04T03:59:56.065Z,85.03
2022-12-04T04:02:29.707Z,85.06
2022-12-04T04:05:01.164Z,85.40
2022-12-04T04:07:35.981Z,85.72
2022-12-04T04:10:09.218Z,85.81
2022-12-04T04:12:42.926Z,85.83
2022-12-04T04:15:32.757Z,85.25
2022-12-04T04:18:20.508Z,85.04
2022-12-04T04:21:11.541Z,84.99
2022-12-04T04:24:01.627Z,84.70
2022-12-04T04:26:35.732Z,85.33
2022-12-04T04:29:03.974Z,84.98
2022-12-04T04:31:39.301Z,85.41
2022-12-04T04:34:19.742Z,85.25
2022-12-04T04:36:55.199Z,85.93
2022-12-04T04:39:32.014Z,87.19
2022-12-04T04:42:05.904Z,86.85
2022-12-04T04:44:40.863Z,86.58
2022-12-04T04:47:13.006Z,85.87
2022-12-04T04:49:43.831Z,86.12
2022-12-04T04:52:11.829Z,86.56
2022-12-04T04:54:40.857Z,87.02
2022-12-04T04:57:08.789Z,86.59
2022-12-04T04:59:36.820Z,86.08
2022-12-04T05:02:05.365Z,85.55
2022-12-04T05:04:33.409Z,85.46
2022-12-04T05:07:02.712Z,85.26
2022-12-04T05:09:30.613Z,85.08
2022-12-04T05:11:58.520Z,84.79
2022-12-04T05:14:26.457Z,84.63
2022-12-04T05:16:56.790Z,84.59
2022-12-04T05:19:45.675Z,84.91
2022-12-04T05:22:14.972Z,84.89
2022-12-04T05:24:43.049Z,85.04
2022-12-04T05:27:11.081Z,85.49
2022-12-04T05:29:39.196Z,85.31
2022-12-04T05:32:07.252Z,86.39
2022-12-04T05:34:35.231Z,85.82
2022-12-04T05:37:03.516Z,85.49
2022-12-04T05:39:33.057Z,86.33
2022-12-04T05:42:01.061Z,86.42
2022-12-04T05:44:28.941Z,85.31
2022-12-04T05:46:56.906Z,84.56
2022-12-04T05:49:25.102Z,84.74
2022-12-04T05:51:53.067Z,84.52
2022-12-04T05:54:24.199Z,84.39
2022-12-04T05:56:54.963Z,84.17
2022-12-04T05:59:23.279Z,84.50
2022-12-04T06:01:51.311Z,84.97
2022-12-04T06:04:19.276Z,85.24
2022-12-04T06:06:47.477Z,84.66
2022-12-04T06:09:15.441Z,84.71
2022-12-04T06:11:44.005Z,84.48
2022-12-04T06:14:16.642Z,83.97
2022-12-04T06:16:46.100Z,84.01
2022-12-04T06:19:16.510Z,85.34
2022-12-04T06:21:46.487Z,85.08
2022-12-04T06:24:16.461Z,84.47
2022-12-04T06:27:11.276Z,84.48
2022-12-04T06:29:34.679Z,84.67
2022-12-04T06:32:02.636Z,84.11
2022-12-04T06:34:30.584Z,84.36
2022-12-04T06:36:58.476Z,84.37
2022-12-04T06:39:26.489Z,83.79
2022-12-04T06:41:54.394Z,83.92
2022-12-04T06:44:22.364Z,83.89
2022-12-04T06:46:54.714Z,83.82
2022-12-04T06:49:23.117Z,83.09
2022-12-04T06:51:51.097Z,83.44
2022-12-04T06:54:19.155Z,83.88
2022-12-04T06:56:47.027Z,83.63
2022-12-04T06:59:14.960Z,84.02
2022-12-04T07:01:43.034Z,84.83
2022-12-04T07:04:12.370Z,84.58
2022-12-04T07:06:40.853Z,85.25
2022-12-04T07:09:11.266Z,85.18
2022-12-04T07:11:39.846Z,84.77
2022-12-04T07:14:08.269Z,84.35
2022-12-04T07:16:40.877Z,84.86
2022-12-04T07:19:09.377Z,84.55
2022-12-04T07:21:38.755Z,84.69
2022-12-04T07:24:07.279Z,84.16
2022-12-04T07:26:35.288Z,84.98
2022-12-04T07:29:03.173Z,84.31
2022-12-04T07:31:31.405Z,84.77
2022-12-04T07:33:59.721Z,84.14
2022-12-04T07:36:28.678Z,84.10
2022-12-04T07:38:58.313Z,84.21
2022-12-04T07:41:26.294Z,84.05
2022-12-04T07:43:54.898Z,83.80
2022-12-04T07:46:27.605Z,83.40
2022-12-04T07:48:57.064Z,83.42
2022-12-04T07:51:27.014Z,83.54
2022-12-04T07:54:02.775Z,84.17
2022-12-04T07:56:31.567Z,83.96
2022-12-04T07:59:00.246Z,83.15
2022-12-04T08:01:28.745Z,83.93
2022-12-04T08:03:59.049Z,83.98
2022-12-04T08:06:28.591Z,83.75
2022-12-04T08:08:58.405Z,83.85
2022-12-04T08:11:28.182Z,83.92
2022-12-04T08:13:57.369Z,83.88
2022-12-04T08:16:26.293Z,84.00
2022-12-04T08:18:55.238Z,83.67
2022-12-04T08:21:25.253Z,83.07
2022-12-04T08:23:54.402Z,82.85
2022-12-04T08:26:27.461Z,85.17
2022-12-04T08:28:56.138Z,83.73
2022-12-04T08:31:26.978Z,83.20
2022-12-04T08:33:57.900Z,82.70
2022-12-04T08:36:26.300Z,82.20
2022-12-04T08:38:54.405Z,82.46
2022-12-04T08:41:26.305Z,82.68
2022-12-04T08:43:56.065Z,82.47
2022-12-04T08:46:26.247Z,82.16
2022-12-04T08:48:55.063Z,82.36
2022-12-04T08:51:25.699Z,82.61
2022-12-04T08:53:56.091Z,82.57
2022-12-04T08:56:26.082Z,82.17
2022-12-04T08:58:54.216Z,82.48
2022-12-04T09:01:22.179Z,82.13
2022-12-04T09:03:50.463Z,81.91
2022-12-04T09:06:19.024Z,81.49
2022-12-04T09:08:47.172Z,81.36
2022-12-04T09:11:16.960Z,81.16
2022-12-04T09:13:46.822Z,81.43
2022-12-04T09:16:17.113Z,81.03
2022-12-04T09:18:45.853Z,81.48
2022-12-04T09:21:16.659Z,80.79
2022-12-04T09:23:44.740Z,80.31
2022-12-04T09:26:20.087Z,79.82
2022-12-04T09:28:50.250Z,79.92
2022-12-04T09:31:19.249Z,79.93
2022-12-04T09:33:47.625Z,79.25
2022-12-04T09:36:17.080Z,79.08
2022-12-04T09:38:45.827Z,78.94
2022-12-04T09:41:31.585Z,80.59
2022-12-04T09:44:04.837Z,79.89
2022-12-04T09:46:37.847Z,79.01
2022-12-04T09:49:12.199Z,79.17
2022-12-04T09:51:43.291Z,79.67
2022-12-04T09:54:15.346Z,79.89
2022-12-04T09:56:50.326Z,79.90
2022-12-04T09:59:23.059Z,79.42
2022-12-04T10:01:57.072Z,79.07
2022-12-04T10:04:25.824Z,79.15
2022-12-04T10:07:02.151Z,79.15
2022-12-04T10:09:37.747Z,79.02
2022-12-04T10:12:17.601Z,78.34
2022-12-04T10:15:11.245Z,77.95
2022-12-04T10:17:58.489Z,77.87
2022-12-04T10:20:49.105Z,77.72
2022-12-04T10:23:24.979Z,78.30
2022-12-04T10:25:55.998Z,78.45
2022-12-04T10:28:30.748Z,78.37
2022-12-04T10:31:03.445Z,79.32
2022-12-04T10:33:38.939Z,78.46
2022-12-04T10:36:08.199Z,78.24
2022-12-04T10:38:41.546Z,78.73
2022-12-04T10:41:16.528Z,78.53
2022-12-04T10:43:46.078Z,78.11
2022-12-04T10:46:19.894Z,77.37
2022-12-04T10:48:52.205Z,77.45
2022-12-04T10:51:22.993Z,77.42
2022-12-04T10:53:52.202Z,77.35
2022-12-04T10:56:22.170Z,77.42
2022-12-04T10:59:00.413Z,77.02
2022-12-04T11:01:32.122Z,76.88
2022-12-04T11:04:05.016Z,76.83
2022-12-04T11:06:33.745Z,77.37
2022-12-04T11:09:03.715Z,77.77
2022-12-04T11:11:34.321Z,77.24
2022-12-04T11:14:04.517Z,77.80
2022-12-04T11:16:37.930Z,77.73
2022-12-04T11:19:20.535Z,76.64
2022-12-04T11:21:49.174Z,76.66
2022-12-04T11:24:23.296Z,75.93
2022-12-04T11:26:53.186Z,75.99
2022-12-04T11:29:26.280Z,77.02
2022-12-04T11:31:58.660Z,77.22
2022-12-04T11:34:36.434Z,77.20
2022-12-04T11:37:04.967Z,76.35
2022-12-04T11:39:37.868Z,76.05
2022-12-04T11:42:16.639Z,75.20
2022-12-04T11:44:52.707Z,74.87
2022-12-04T11:47:26.277Z,73.77
2022-12-04T11:50:03.992Z,74.18
2022-12-04T11:52:51.288Z,73.33
2022-12-04T11:55:29.147Z,74.28
2022-12-04T11:58:16.942Z,74.17
2022-12-04T12:00:52.003Z,72.76
2022-12-04T12:03:28.345Z,72.43
2022-12-04T12:06:18.287Z,70.89
2022-12-04T12:08:58.157Z,70.36
2022-12-04T12:11:31.791Z,69.57
2022-12-04T12:14:09.441Z,69.42
2022-12-04T12:16:51.668Z,67.31
2022-12-04T12:19:39.359Z,66.30
2022-12-04T12:22:14.756Z,65.53
2022-12-04T12:24:51.531Z,65.32
2022-12-04T12:27:37.475Z,66.50
2022-12-04T12:30:10.686Z,65.73
2022-12-04T12:32:59.512Z,66.04
2022-12-04T12:35:34.139Z,65.65
2022-12-04T12:38:04.072Z,65.12
2022-12-04T12:40:36.471Z,65.87
2022-12-04T12:43:08.948Z,66.29
2022-12-04T12:45:45.126Z,66.07
2022-12-04T12:48:26.838Z,66.00
2022-12-04T12:51:28.539Z,65.94
2022-12-04T12:53:53.614Z,67.67
2022-12-04T12:56:34.410Z,68.33
2022-12-04T12:59:07.386Z,67.43
2022-12-04T13:01:44.826Z,67.43
2022-12-04T13:04:20.796Z,67.73
2022-12-04T13:06:55.255Z,68.13
2022-12-04T13:09:29.960Z,68.24
2022-12-04T13:12:02.785Z,69.07
2022-12-04T13:14:30.763Z,69.01
2022-12-04T13:17:02.585Z,68.36
2022-12-04T13:19:35.471Z,69.28
2022-12-04T13:22:17.678Z,69.71
2022-12-04T13:25:16.947Z,68.65
2022-12-04T13:27:55.312Z,69.98
2022-12-04T13:30:25.463Z,69.35
2022-12-04T13:33:15.269Z,70.14
2022-12-04T13:36:01.765Z,69.98
2022-12-04T13:38:41.661Z,68.80
2022-12-04T13:41:12.013Z,68.32
2022-12-04T13:43:47.394Z,69.23
2022-12-04T13:46:31.089Z,69.86
2022-12-04T13:49:11.008Z,70.98
2022-12-04T13:51:41.154Z,72.54
2022-12-04T13:54:29.344Z,73.76
2022-12-04T13:56:59.353Z,73.98
2022-12-04T13:59:39.872Z,73.14
2022-12-04T14:02:25.543Z,74.08
2022-12-04T14:04:57.553Z,72.89
2022-12-04T14:07:30.014Z,73.60
2022-12-04T14:10:04.768Z,74.68
2022-12-04T14:12:37.690Z,74.62
2022-12-04T14:15:08.918Z,75.21
2022-12-04T14:17:39.569Z,75.54
2022-12-04T14:20:22.763Z,76.16
2022-12-04T14:22:50.686Z,77.03
2022-12-04T14:25:36.001Z,76.77
2022-12-04T14:28:25.232Z,76.78
2022-12-04T14:31:07.514Z,76.08
2022-12-04T14:33:43.859Z,76.17
2022-12-04T14:36:19.295Z,75.75
2022-12-04T14:38:49.618Z,75.61
2022-12-04T14:41:27.403Z,76.75
2022-12-04T14:43:56.847Z,76.89
2022-12-04T14:46:32.593Z,77.22
2022-12-04T14:49:11.012Z,78.02
2022-12-04T14:51:46.304Z,77.18
2022-12-04T14:54:23.457Z,76.74
2022-12-04T14:57:12.169Z,77.19
2022-12-04T14:59:44.080Z,77.48
2022-12-04T15:02:14.878Z,78.04
2022-12-04T15:04:46.509Z,78.10
2022-12-04T15:07:22.050Z,77.44
2022-12-04T15:10:12.919Z,78.78
2022-12-04T15:12:47.442Z,78.48
2022-12-04T15:15:25.130Z,78.27
2022-12-04T15:18:05.324Z,80.06
2022-12-04T15:20:39.217Z,80.08
2022-12-04T15:23:07.776Z,80.03
2022-12-04T15:25:42.250Z,80.30
2022-12-04T15:28:15.395Z,79.41
2022-12-04T15:30:45.016Z,79.73
2022-12-04T15:33:21.186Z,79.68
2022-12-04T15:35:53.778Z,80.21
2022-12-04T15:38:22.382Z,79.92
2022-12-04T15:40:53.120Z,80.57
2022-12-04T15:43:30.173Z,81.32
2022-12-04T15:45:59.097Z,80.19
2022-12-04T15:48:28.599Z,80.10
2022-12-04T15:51:01.977Z,81.25
2022-12-04T15:53:33.622Z,80.45
2022-12-04T15:56:04.329Z,79.96
2022-12-04T15:58:35.231Z,79.91
2022-12-04T16:01:06.361Z,80.11
2022-12-04T16:03:46.475Z,79.88
2022-12-04T16:06:20.512Z,80.37
2022-12-04T16:08:51.011Z,80.28
2022-12-04T16:11:31.063Z,80.40
2022-12-04T16:14:19.936Z,80.34
2022-12-04T16:16:49.881Z,81.07
2022-12-04T16:19:30.990Z,81.16
2022-12-04T16:21:59.730Z,81.68
2022-12-04T16:24:27.984Z,82.22
2022-12-04T16:26:58.241Z,82.51
2022-12-04T16:29:27.596Z,82.78
2022-12-04T16:32:01.246Z,82.51
2022-12-04T16:34:31.312Z,83.74
2022-12-04T16:37:00.410Z,83.73
2022-12-04T16:39:28.407Z,84.04
2022-12-04T16:41:56.353Z,83.84
2022-12-04T16:44:24.238Z,83.52
2022-12-04T16:46:53.560Z,84.38
2022-12-04T16:49:21.574Z,83.63
2022-12-04T16:51:50.729Z,82.64
2022-12-04T16:54:18.826Z,82.34
2022-12-04T16:56:46.708Z,81.84
2022-12-04T16:59:14.739Z,82.63
2022-12-04T17:01:46.395Z,82.63
2022-12-04T17:04:58.581Z,82.96
2022-12-04T17:07:26.615Z,82.59
2022-12-04T17:09:54.571Z,83.03
2022-12-04T17:12:22.473Z,82.73
2022-12-04T17:14:50.394Z,82.59
2022-12-04T17:17:18.270Z,82.52
2022-12-04T17:19:46.621Z,81.68
2022-12-04T17:22:16.426Z,82.31
2022-12-04T17:24:50.264Z,82.30
2022-12-04T17:27:22.835Z,82.04
2022-12-04T17:29:50.821Z,81.51
2022-12-04T17:32:18.747Z,83.03
2022-12-04T17:34:46.699Z,82.39
2022-12-04T17:37:15.968Z,82.74
2022-12-04T17:39:43.934Z,82.87
2022-12-04T17:42:11.834Z,82.64
2022-12-04T17:44:39.779Z,83.30
2022-12-04T17:47:07.779Z,83.74
2022-12-04T17:49:35.904Z,83.43
2022-12-04T17:52:03.947Z,82.53
2022-12-04T17:54:33.336Z,82.17
2022-12-04T17:57:01.275Z,82.93
2022-12-04T17:59:29.355Z,83.07
2022-12-04T18:01:57.276Z,82.66
2022-12-04T18:04:25.300Z,83.74
2022-12-04T18:06:53.712Z,82.73
2022-12-04T18:09:21.835Z,82.12
2022-12-04T18:11:51.184Z,81.96
2022-12-04T18:14:22.159Z,82.05
2022-12-04T18:16:53.112Z,82.82
2022-12-04T18:19:22.459Z,83.35
2022-12-04T18:21:51.203Z,82.84
2022-12-04T18:24:19.475Z,83.08
2022-12-04T18:26:49.359Z,83.78
2022-12-04T18:29:21.041Z,83.19
2022-12-04T18:31:51.322Z,82.76
2022-12-04T18:34:22.206Z,82.67
2022-12-04T18:36:50.678Z,82.50
2022-12-04T18:39:21.364Z,82.76
2022-12-04T18:41:50.192Z,83.04
2022-12-04T18:44:22.783Z,83.47
2022-12-04T18:46:50.916Z,83.06
2022-12-04T18:49:18.808Z,84.43
2022-12-04T18:51:50.057Z,84.07
2022-12-04T18:54:21.263Z,83.51
2022-12-04T18:56:49.399Z,83.03
2022-12-04T18:59:21.725Z,83.05
2022-12-04T19:01:51.018Z,83.17
2022-12-04T19:04:22.091Z,83.28
2022-12-04T19:06:52.328Z,82.49
2022-12-04T19:09:40.740Z,82.78
2022-12-04T19:12:11.965Z,83.60
2022-12-04T19:14:41.534Z,83.54
2022-12-04T19:17:09.540Z,84.44
2022-12-04T19:19:37.582Z,84.24
2022-12-04T19:22:05.622Z,85.16
2022-12-04T19:24:33.853Z,84.09
2022-12-04T19:27:10.033Z,83.59
2022-12-04T19:29:38.294Z,82.99
2022-12-04T19:32:08.386Z,82.24
2022-12-04T19:34:36.840Z,83.67
2022-12-04T19:37:04.775Z,82.80
2022-12-04T19:39:32.704Z,82.82
2022-12-04T19:42:00.653Z,83.58
2022-12-04T19:47:18.244Z,82.43
2022-12-04T19:49:46.607Z,82.74
2022-12-04T19:52:14.790Z,83.07
2022-12-04T19:54:42.934Z,83.78
2022-12-04T19:57:11.224Z,83.24
2022-12-04T19:59:44.515Z,83.60
2022-12-04T20:02:14.684Z,83.53
2022-12-04T20:04:44.243Z,83.36
2022-12-04T20:07:12.360Z,83.90
2022-12-04T20:09:40.377Z,83.99
2022-12-04T20:12:08.662Z,84.37
2022-12-04T20:14:36.654Z,83.83
2022-12-04T20:17:05.292Z,83.81
2022-12-04T20:19:33.394Z,84.66
2022-12-04T20:22:02.676Z,84.00
2022-12-04T20:24:30.591Z,83.37
2022-12-04T20:26:58.572Z,83.83
2022-12-04T20:29:26.498Z,84.26
2022-12-04T20:31:54.406Z,83.31
2022-12-04T20:34:22.434Z,83.12
2022-12-04T20:36:50.687Z,82.52
2022-12-04T20:39:20.960Z,83.14
2022-12-04T20:41:49.328Z,83.06
2022-12-04T20:44:19.344Z,83.55
2022-12-04T20:46:48.343Z,83.41
2022-12-04T20:49:22.586Z,83.58
2022-12-04T20:51:52.167Z,83.33
2022-12-04T20:54:23.624Z,84.13
2022-12-04T20:56:53.356Z,84.63
2022-12-04T20:59:23.898Z,83.93
2022-12-04T21:01:52.955Z,84.05
2022-12-04T21:04:21.393Z,83.75
2022-12-04T21:06:49.341Z,83.98
2022-12-04T21:09:19.267Z,85.10
2022-12-04T21:11:50.388Z,84.67
2022-12-04T21:14:38.046Z,84.93
2022-12-04T21:17:07.729Z,85.40
2022-12-04T21:19:36.119Z,85.20
2022-12-04T21:22:04.121Z,85.68
2022-12-04T21:24:38.023Z,85.14
2022-12-04T21:27:09.177Z,84.45
2022-12-04T21:29:37.944Z,84.60
2022-12-04T21:32:07.937Z,84.53
2022-12-04T21:34:36.374Z,84.48
2022-12-04T21:37:04.577Z,83.82
2022-12-04T21:39:32.740Z,84.04
2022-12-04T21:42:18.272Z,84.59
2022-12-04T21:44:47.640Z,84.97
2022-12-04T21:47:15.525Z,84.29
2022-12-04T21:49:43.489Z,84.20
2022-12-04T21:52:11.385Z,84.07
2022-12-04T21:54:39.351Z,83.63
2022-12-04T21:57:07.335Z,83.55
2022-12-04T21:59:35.282Z,83.64
2022-12-04T22:02:05.176Z,84.75
2022-12-04T22:04:33.183Z,85.52
2022-12-04T22:07:01.081Z,85.50
2022-12-04T22:09:29.116Z,85.26
2022-12-04T22:11:57.077Z,84.87
2022-12-04T22:14:25.053Z,84.52
2022-12-04T22:16:54.327Z,84.36
2022-12-04T22:19:24.196Z,83.87
2022-12-04T22:21:52.173Z,84.18
2022-12-04T22:24:20.097Z,83.64
2022-12-04T22:26:48.043Z,83.95
2022-12-04T22:29:48.574Z,84.32
2022-12-04T22:32:03.922Z,83.40
2022-12-04T22:34:33.268Z,83.17
2022-12-04T22:37:01.238Z,83.20
2022-12-04T22:39:29.185Z,83.39
2022-12-04T22:41:57.106Z,83.16
2022-12-04T22:44:25.109Z,82.72
2022-12-04T22:46:53.114Z,83.32
2022-12-04T22:49:21.288Z,83.13
2022-12-04T22:51:50.659Z,82.85
2022-12-04T22:54:18.598Z,82.47
2022-12-04T22:56:46.543Z,82.60
2022-12-04T22:59:14.516Z,83.35
2022-12-04T23:01:42.435Z,82.53
2022-12-04T23:04:11.413Z,83.19
2022-12-04T23:06:39.662Z,84.06
2022-12-04T23:09:12.692Z,83.83
2022-12-04T23:11:40.829Z,83.73
2022-12-04T23:14:11.790Z,83.34
2022-12-04T23:16:41.011Z,83.35
2022-12-04T23:19:12.019Z,83.54
2022-12-04T23:21:40.655Z,83.70
2022-12-04T23:24:10.664Z,84.16
2022-12-04T23:26:41.705Z,83.96
2022-12-04T23:29:29.656Z,84.92
2022-12-04T23:31:57.831Z,84.33
2022-12-04T23:34:25.985Z,83.69
2022-12-04T23:36:53.905Z,82.88
2022-12-04T23:39:23.209Z,83.14
2022-12-04T23:41:51.132Z,84.40
2022-12-04T23:44:19.117Z,84.20
2022-12-04T23:46:47.082Z,84.17
2022-12-04T23:49:14.990Z,84.19
2022-12-04T23:51:42.949Z,83.61
2022-12-04T23:54:11.320Z,83.73
2022-12-04T23:56:40.825Z,84.13
2022-12-04T23:59:08.708Z,84.15
